createdAt,value
2023-04-23T00:00:06.576Z,23.83
2023-04-23T00:01:06.605Z,23.82
2023-04-23T00:02:06.671Z,23.82
2023-04-23T00:03:06.745Z,23.82
2023-04-23T00:04:06.773Z,23.82
2023-04-23T00:05:06.643Z,23.81
2023-04-23T00:06:06.610Z,23.82
2023-04-23T00:07:06.713Z,23.81
2023-04-23T00:08:08.150Z,23.81
2023-04-23T00:09:06.584Z,23.80
2023-04-23T00:10:06.567Z,23.80
2023-04-23T00:11:06.598Z,23.81
2023-04-23T00:12:06.586Z,23.80
2023-04-23T00:13:06.557Z,23.80
2023-04-23T00:14:06.673Z,23.80
2023-04-23T00:15:06.574Z,23.79
2023-04-23T00:16:06.600Z,23.79
2023-04-23T00:17:06.578Z,23.79
2023-04-23T00:18:06.581Z,23.79
2023-04-23T00:19:06.565Z,23.79
2023-04-23T00:20:06.579Z,23.79
2023-04-23T00:21:06.549Z,23.78
2023-04-23T00:22:06.575Z,23.78
2023-04-23T00:23:06.536Z,23.78
2023-04-23T00:24:06.548Z,23.78
2023-04-23T00:25:06.557Z,23.78
2023-04-23T00:26:06.564Z,23.78
2023-04-23T00:27:06.563Z,23.78
2023-04-23T00:28:06.552Z,23.78
2023-04-23T00:29:06.575Z,23.78
2023-04-23T00:30:06.588Z,23.77
2023-04-23T00:31:06.550Z,23.77
2023-04-23T00:32:06.645Z,23.77
2023-04-23T00:33:06.552Z,23.77
2023-04-23T00:34:06.533Z,23.77
2023-04-23T00:35:06.551Z,23.77
2023-04-23T00:36:06.537Z,23.76
2023-04-23T00:37:06.540Z,23.76
2023-04-23T00:38:06.519Z,23.76
2023-04-23T00:39:06.538Z,23.76
2023-04-23T00:40:06.530Z,23.77
2023-04-23T00:41:06.512Z,23.77
2023-04-23T00:42:06.530Z,23.76
2023-04-23T00:43:06.545Z,23.76
2023-04-23T00:44:06.535Z,23.76
2023-04-23T00:45:06.495Z,23.76
2023-04-23T00:46:06.558Z,23.76
2023-04-23T00:47:06.512Z,23.76
2023-04-23T00:48:06.529Z,23.75
2023-04-23T00:49:06.531Z,23.76
2023-04-23T00:50:06.536Z,23.75
2023-04-23T00:51:06.503Z,23.76
2023-04-23T00:52:06.507Z,23.75
2023-04-23T00:53:06.499Z,23.75
2023-04-23T00:54:06.539Z,23.75
2023-04-23T00:55:06.538Z,23.75
2023-04-23T00:56:06.498Z,23.75
2023-04-23T00:57:06.520Z,23.75
2023-04-23T00:58:06.546Z,23.74
2023-04-23T00:59:06.511Z,23.74
2023-04-23T01:00:06.495Z,23.74
2023-04-23T01:01:06.527Z,23.75
2023-04-23T01:02:06.592Z,23.73
2023-04-23T01:03:06.666Z,23.73
2023-04-23T01:04:06.795Z,23.73
2023-04-23T01:05:06.498Z,23.72
2023-04-23T01:06:06.513Z,23.73
2023-04-23T01:07:06.471Z,23.73
2023-04-23T01:08:06.478Z,23.73
2023-04-23T01:09:09.200Z,23.73
2023-04-23T01:10:06.460Z,23.73
2023-04-23T01:11:06.443Z,23.72
2023-04-23T01:12:06.438Z,23.72
2023-04-23T01:13:06.437Z,23.72
2023-04-23T01:14:06.462Z,23.71
2023-04-23T01:15:06.445Z,23.72
2023-04-23T01:16:06.433Z,23.71
2023-04-23T01:17:06.439Z,23.71
2023-04-23T01:18:06.407Z,23.71
2023-04-23T01:19:06.422Z,23.72
2023-04-23T01:20:06.393Z,23.72
2023-04-23T01:21:06.375Z,23.72
2023-04-23T01:22:06.378Z,23.71
2023-04-23T01:23:06.356Z,23.71
2023-04-23T01:24:06.387Z,23.71
2023-04-23T01:25:06.353Z,23.72
2023-04-23T01:26:06.350Z,23.71
2023-04-23T01:27:06.361Z,23.72
2023-04-23T01:28:06.346Z,23.71
2023-04-23T01:29:06.327Z,23.70
2023-04-23T01:30:06.339Z,23.71
2023-04-23T01:31:06.325Z,23.71
2023-04-23T01:32:06.314Z,23.71
2023-04-23T01:33:06.348Z,23.70
2023-04-23T01:34:06.301Z,23.70
2023-04-23T01:35:06.309Z,23.71
2023-04-23T01:36:06.306Z,23.70
2023-04-23T01:37:06.312Z,23.70
2023-04-23T01:38:06.257Z,23.70
2023-04-23T01:39:06.260Z,23.70
2023-04-23T01:40:06.266Z,23.70
2023-04-23T01:41:06.246Z,23.69
2023-04-23T01:42:06.230Z,23.69
2023-04-23T01:43:06.251Z,23.69
2023-04-23T01:44:06.225Z,23.70
2023-04-23T01:45:06.237Z,23.69
2023-04-23T01:46:06.234Z,23.69
2023-04-23T01:47:07.239Z,23.69
2023-04-23T01:48:06.235Z,23.69
2023-04-23T01:49:06.191Z,23.69
2023-04-23T01:50:06.203Z,23.68
2023-04-23T01:51:06.175Z,23.69
2023-04-23T01:52:06.178Z,23.68
2023-04-23T01:53:06.199Z,23.69
2023-04-23T01:54:06.147Z,23.69
2023-04-23T01:55:06.166Z,23.68
2023-04-23T01:56:06.176Z,23.68
2023-04-23T01:57:06.160Z,23.68
2023-04-23T01:58:06.120Z,23.68
2023-04-23T01:59:06.117Z,23.68
2023-04-23T02:00:06.105Z,23.67
2023-04-23T02:01:06.101Z,23.67
2023-04-23T02:02:06.232Z,23.67
2023-04-23T02:03:06.353Z,23.68
2023-04-23T02:04:06.124Z,23.67
2023-04-23T02:05:06.079Z,23.68
2023-04-23T02:06:06.106Z,23.67
2023-04-23T02:07:06.054Z,23.67
2023-04-23T02:08:06.080Z,23.67
2023-04-23T02:09:06.058Z,23.67
2023-04-23T02:10:06.063Z,23.67
2023-04-23T02:11:06.065Z,23.67
2023-04-23T02:12:06.024Z,23.67
2023-04-23T02:13:06.052Z,23.66
2023-04-23T02:14:06.016Z,23.67
2023-04-23T02:15:06.015Z,23.66
2023-04-23T02:16:06.057Z,23.66
2023-04-23T02:17:06.028Z,23.66
2023-04-23T02:18:06.009Z,23.65
2023-04-23T02:19:05.999Z,23.66
2023-04-23T02:20:05.970Z,23.65
2023-04-23T02:21:06.000Z,23.66
2023-04-23T02:22:05.986Z,23.65
2023-04-23T02:23:05.979Z,23.66
2023-04-23T02:24:05.964Z,23.65
2023-04-23T02:25:05.982Z,23.64
2023-04-23T02:26:05.965Z,23.65
2023-04-23T02:27:05.976Z,23.64
2023-04-23T02:28:05.947Z,23.65
2023-04-23T02:29:05.926Z,23.64
2023-04-23T02:30:05.922Z,23.64
2023-04-23T02:31:05.970Z,23.64
2023-04-23T02:32:05.892Z,23.64
2023-04-23T02:33:05.918Z,23.63
2023-04-23T02:34:05.918Z,23.63
2023-04-23T02:35:05.881Z,23.63
2023-04-23T02:36:05.897Z,23.63
2023-04-23T02:37:05.904Z,23.62
2023-04-23T02:38:05.865Z,23.62
2023-04-23T02:39:05.888Z,23.62
2023-04-23T02:40:05.867Z,23.61
2023-04-23T02:41:05.902Z,23.61
2023-04-23T02:42:05.863Z,23.61
2023-04-23T02:43:05.863Z,23.61
2023-04-23T02:44:05.871Z,23.60
2023-04-23T02:45:05.854Z,23.61
2023-04-23T02:46:05.829Z,23.61
2023-04-23T02:47:05.841Z,23.60
2023-04-23T02:48:05.823Z,23.60
2023-04-23T02:49:05.817Z,23.61
2023-04-23T02:50:05.834Z,23.61
2023-04-23T02:51:05.809Z,23.61
2023-04-23T02:52:05.791Z,23.61
2023-04-23T02:53:05.807Z,23.61
2023-04-23T02:54:05.801Z,23.60
2023-04-23T02:55:05.792Z,23.61
2023-04-23T02:56:05.790Z,23.60
2023-04-23T02:57:05.761Z,23.60
2023-04-23T02:58:05.758Z,23.60
2023-04-23T02:59:05.741Z,23.60
2023-04-23T03:00:05.717Z,23.60
2023-04-23T03:01:05.782Z,23.60
2023-04-23T03:02:05.772Z,23.60
2023-04-23T03:03:05.856Z,23.59
2023-04-23T03:04:05.880Z,23.60
2023-04-23T03:05:05.719Z,23.59
2023-04-23T03:06:05.735Z,23.59
2023-04-23T03:07:05.722Z,23.60
2023-04-23T03:08:05.689Z,23.60
2023-04-23T03:09:05.684Z,23.59
2023-04-23T03:10:05.738Z,23.59
2023-04-23T03:11:05.728Z,23.58
2023-04-23T03:12:05.739Z,23.59
2023-04-23T03:13:05.760Z,23.60
2023-04-23T03:14:05.797Z,23.58
2023-04-23T03:15:05.780Z,23.58
2023-04-23T03:16:05.819Z,23.59
2023-04-23T03:17:05.962Z,23.58
2023-04-23T03:18:05.876Z,23.58
2023-04-23T03:19:05.876Z,23.59
2023-04-23T03:20:05.925Z,23.58
2023-04-23T03:21:05.914Z,23.58
2023-04-23T03:22:05.963Z,23.59
2023-04-23T03:23:05.984Z,23.58
2023-04-23T03:24:05.991Z,23.58
2023-04-23T03:25:06.017Z,23.58
2023-04-23T03:26:06.034Z,23.58
2023-04-23T03:27:06.023Z,23.59
2023-04-23T03:28:06.040Z,23.58
2023-04-23T03:29:06.056Z,23.58
2023-04-23T03:30:06.075Z,23.58
2023-04-23T03:31:06.140Z,23.58
2023-04-23T03:32:06.132Z,23.58
2023-04-23T03:33:06.146Z,23.57
2023-04-23T03:34:06.154Z,23.58
2023-04-23T03:35:06.195Z,23.58
2023-04-23T03:36:06.215Z,23.57
2023-04-23T03:37:06.239Z,23.57
2023-04-23T03:38:06.282Z,23.57
2023-04-23T03:39:06.271Z,23.57
2023-04-23T03:40:06.289Z,23.58
2023-04-23T03:41:06.307Z,23.57
2023-04-23T03:42:06.327Z,23.56
2023-04-23T03:43:06.352Z,23.57
2023-04-23T03:44:06.366Z,23.56
2023-04-23T03:45:06.378Z,23.57
2023-04-23T03:46:06.461Z,23.56
2023-04-23T03:47:06.417Z,23.55
2023-04-23T03:48:06.465Z,23.55
2023-04-23T03:49:06.486Z,23.55
2023-04-23T03:50:06.509Z,23.55
2023-04-23T03:51:06.574Z,23.54
2023-04-23T03:52:06.558Z,23.55
2023-04-23T03:53:06.598Z,23.55
2023-04-23T03:54:06.631Z,23.55
2023-04-23T03:55:06.616Z,23.55
2023-04-23T03:56:06.668Z,23.54
2023-04-23T03:57:06.672Z,23.54
2023-04-23T03:58:06.722Z,23.54
2023-04-23T03:59:06.727Z,23.54
2023-04-23T04:00:06.769Z,23.54
2023-04-23T04:01:06.782Z,23.54
2023-04-23T04:02:06.913Z,23.54
2023-04-23T04:03:07.011Z,23.54
2023-04-23T04:04:07.024Z,23.54
2023-04-23T04:05:07.193Z,23.53
2023-04-23T04:06:06.923Z,23.53
2023-04-23T04:07:06.918Z,23.53
2023-04-23T04:08:06.959Z,23.53
2023-04-23T04:09:06.997Z,23.53
2023-04-23T04:10:06.986Z,23.54
2023-04-23T04:11:07.023Z,23.53
2023-04-23T04:12:07.041Z,23.53
2023-04-23T04:13:07.074Z,23.53
2023-04-23T04:14:07.079Z,23.53
2023-04-23T04:15:07.084Z,23.52
2023-04-23T04:16:07.160Z,23.52
2023-04-23T04:17:07.134Z,23.52
2023-04-23T04:18:07.139Z,23.52
2023-04-23T04:19:07.193Z,23.52
2023-04-23T04:20:07.212Z,23.52
2023-04-23T04:21:07.260Z,23.52
2023-04-23T04:22:07.296Z,23.51
2023-04-23T04:23:07.297Z,23.50
2023-04-23T04:24:07.313Z,23.51
2023-04-23T04:25:07.360Z,23.50
2023-04-23T04:26:07.374Z,23.50
2023-04-23T04:27:07.397Z,23.49
2023-04-23T04:28:07.438Z,23.49
2023-04-23T04:29:07.437Z,23.49
2023-04-23T04:30:07.476Z,23.49
2023-04-23T04:31:07.509Z,23.49
2023-04-23T04:32:07.530Z,23.50
2023-04-23T04:33:07.524Z,23.49
2023-04-23T04:34:07.575Z,23.50
2023-04-23T04:35:07.681Z,23.50
2023-04-23T04:36:07.637Z,23.50
2023-04-23T04:37:07.671Z,23.50
2023-04-23T04:38:07.666Z,23.50
2023-04-23T04:39:07.680Z,23.49
2023-04-23T04:40:07.732Z,23.50
2023-04-23T04:41:07.812Z,23.49
2023-04-23T04:42:07.802Z,23.49
2023-04-23T04:43:07.789Z,23.50
2023-04-23T04:44:07.813Z,23.49
2023-04-23T04:45:07.821Z,23.50
2023-04-23T04:46:07.877Z,23.50
2023-04-23T04:47:07.931Z,23.50
2023-04-23T04:48:07.922Z,23.49
2023-04-23T04:49:07.952Z,23.49
2023-04-23T04:50:07.958Z,23.49
2023-04-23T04:51:07.946Z,23.49
2023-04-23T04:52:07.967Z,23.50
2023-04-23T04:53:07.997Z,23.49
2023-04-23T04:54:08.030Z,23.49
2023-04-23T04:55:08.038Z,23.49
2023-04-23T04:56:08.049Z,23.50
2023-04-23T04:57:08.049Z,23.50
2023-04-23T04:58:08.101Z,23.49
2023-04-23T04:59:08.115Z,23.50
2023-04-23T05:00:08.119Z,23.50
2023-04-23T05:01:08.182Z,23.50
2023-04-23T05:02:08.267Z,23.50
2023-04-23T05:03:08.985Z,23.50
2023-04-23T05:04:08.472Z,23.50
2023-04-23T05:05:08.256Z,23.50
2023-04-23T05:06:08.239Z,23.50
2023-04-23T05:07:08.275Z,23.50
2023-04-23T05:08:08.285Z,23.50
2023-04-23T05:09:08.356Z,23.50
2023-04-23T05:10:08.338Z,23.50
2023-04-23T05:11:08.383Z,23.50
2023-04-23T05:12:08.370Z,23.51
2023-04-23T05:13:08.794Z,23.50
2023-04-23T05:14:08.427Z,23.50
2023-04-23T05:15:08.458Z,23.51
2023-04-23T05:16:08.501Z,23.51
2023-04-23T05:17:08.495Z,23.51
2023-04-23T05:18:08.550Z,23.50
2023-04-23T05:19:08.547Z,23.51
2023-04-23T05:20:08.613Z,23.51
2023-04-23T05:21:08.649Z,23.50
2023-04-23T05:22:08.670Z,23.51
2023-04-23T05:23:08.676Z,23.51
2023-04-23T05:24:08.708Z,23.51
2023-04-23T05:25:08.724Z,23.51
2023-04-23T05:26:08.737Z,23.52
2023-04-23T05:27:08.756Z,23.53
2023-04-23T05:28:08.826Z,23.52
2023-04-23T05:29:08.837Z,23.52
2023-04-23T05:30:08.836Z,23.52
2023-04-23T05:31:09.009Z,23.52
2023-04-23T05:32:08.954Z,23.52
2023-04-23T05:33:08.889Z,23.52
2023-04-23T05:34:08.916Z,23.53
2023-04-23T05:35:08.917Z,23.52
2023-04-23T05:36:08.978Z,23.52
2023-04-23T05:37:09.021Z,23.53
2023-04-23T05:38:09.031Z,23.53
2023-04-23T05:39:08.989Z,23.53
2023-04-23T05:40:09.025Z,23.54
2023-04-23T05:41:09.063Z,23.54
2023-04-23T05:42:09.060Z,23.54
2023-04-23T05:43:09.107Z,23.54
2023-04-23T05:44:09.099Z,23.54
2023-04-23T05:45:09.375Z,23.55
2023-04-23T05:46:09.166Z,23.55
2023-04-23T05:47:09.123Z,23.54
2023-04-23T05:48:09.202Z,23.54
2023-04-23T05:49:09.178Z,23.55
2023-04-23T05:50:09.194Z,23.55
2023-04-23T05:51:09.217Z,23.55
2023-04-23T05:52:09.204Z,23.55
2023-04-23T05:53:09.251Z,23.56
2023-04-23T05:54:09.242Z,23.55
2023-04-23T05:55:09.247Z,23.55
2023-04-23T05:56:09.264Z,23.56
2023-04-23T05:57:09.258Z,23.55
2023-04-23T05:58:09.303Z,23.55
2023-04-23T05:59:09.298Z,23.56
2023-04-23T06:00:09.312Z,23.56
2023-04-23T06:01:09.337Z,23.56
2023-04-23T06:02:09.464Z,23.57
2023-04-23T06:03:09.494Z,23.56
2023-04-23T06:04:09.482Z,23.57
2023-04-23T06:05:09.632Z,23.57
2023-04-23T06:06:09.407Z,23.56
2023-04-23T06:07:09.393Z,23.56
2023-04-23T06:08:09.441Z,23.57
2023-04-23T06:09:09.452Z,23.57
2023-04-23T06:10:09.453Z,23.57
2023-04-23T06:11:09.458Z,23.56
2023-04-23T06:12:09.484Z,23.56
2023-04-23T06:13:09.500Z,23.57
2023-04-23T06:14:09.480Z,23.57
2023-04-23T06:15:09.544Z,23.57
2023-04-23T06:16:09.566Z,23.57
2023-04-23T06:17:09.533Z,23.57
2023-04-23T06:18:09.592Z,23.57
2023-04-23T06:19:09.594Z,23.57
2023-04-23T06:20:09.566Z,23.57
2023-04-23T06:21:09.608Z,23.58
2023-04-23T06:22:09.641Z,23.57
2023-04-23T06:23:09.635Z,23.58
2023-04-23T06:24:09.645Z,23.58
2023-04-23T06:25:09.656Z,23.58
2023-04-23T06:26:09.675Z,23.58
2023-04-23T06:27:09.709Z,23.58
2023-04-23T06:28:09.699Z,23.58
2023-04-23T06:29:09.743Z,23.58
2023-04-23T06:30:09.720Z,23.58
2023-04-23T06:31:09.780Z,23.59
2023-04-23T06:32:09.749Z,23.59
2023-04-23T06:33:09.756Z,23.58
2023-04-23T06:34:09.772Z,23.58
2023-04-23T06:35:09.784Z,23.59
2023-04-23T06:36:09.769Z,23.58
2023-04-23T06:37:09.766Z,23.59
2023-04-23T06:38:09.813Z,23.59
2023-04-23T06:39:09.849Z,23.58
2023-04-23T06:40:09.849Z,23.59
2023-04-23T06:41:09.860Z,23.59
2023-04-23T06:42:09.859Z,23.59
2023-04-23T06:43:09.898Z,23.59
2023-04-23T06:44:09.912Z,23.59
2023-04-23T06:45:09.918Z,23.60
2023-04-23T06:46:09.971Z,23.60
2023-04-23T06:47:10.140Z,23.60
2023-04-23T06:48:10.043Z,23.60
2023-04-23T06:49:09.981Z,23.61
2023-04-23T06:50:10.092Z,23.61
2023-04-23T06:51:10.050Z,23.61
2023-04-23T06:52:10.054Z,23.62
2023-04-23T06:53:10.090Z,23.62
2023-04-23T06:54:10.060Z,23.62
2023-04-23T06:55:10.089Z,23.62
2023-04-23T06:56:10.114Z,23.62
2023-04-23T06:57:10.152Z,23.63
2023-04-23T06:58:10.161Z,23.62
2023-04-23T06:59:10.182Z,23.63
2023-04-23T07:00:10.180Z,23.63
2023-04-23T07:01:10.263Z,23.63
2023-04-23T07:02:10.268Z,23.63
2023-04-23T07:03:10.425Z,23.64
2023-04-23T07:04:10.301Z,23.63
2023-04-23T07:05:10.312Z,23.64
2023-04-23T07:06:10.329Z,23.64
2023-04-23T07:07:10.289Z,23.64
2023-04-23T07:08:10.314Z,23.64
2023-04-23T07:09:10.303Z,23.65
2023-04-23T07:10:10.328Z,23.65
2023-04-23T07:11:10.344Z,23.66
2023-04-23T07:12:10.382Z,23.66
2023-04-23T07:13:10.365Z,23.66
2023-04-23T07:14:10.401Z,23.66
2023-04-23T07:15:10.389Z,23.67
2023-04-23T07:16:10.421Z,23.67
2023-04-23T07:17:10.406Z,23.68
2023-04-23T07:18:10.426Z,23.68
2023-04-23T07:19:10.407Z,23.68
2023-04-23T07:20:10.460Z,23.68
2023-04-23T07:21:10.436Z,23.69
2023-04-23T07:22:10.438Z,23.69
2023-04-23T07:23:10.482Z,23.70
2023-04-23T07:24:10.461Z,23.69
2023-04-23T07:25:10.514Z,23.70
2023-04-23T07:26:10.581Z,23.70
2023-04-23T07:27:10.535Z,23.71
2023-04-23T07:28:10.549Z,23.71
2023-04-23T07:29:10.551Z,23.71
2023-04-23T07:30:10.529Z,23.71
2023-04-23T07:31:10.616Z,23.72
2023-04-23T07:32:10.589Z,23.72
2023-04-23T07:33:10.560Z,23.72
2023-04-23T07:34:10.583Z,23.73
2023-04-23T07:35:10.534Z,23.72
2023-04-23T07:36:10.557Z,23.73
2023-04-23T07:37:10.549Z,23.74
2023-04-23T07:38:10.535Z,23.74
2023-04-23T07:39:10.537Z,23.75
2023-04-23T07:40:10.536Z,23.74
2023-04-23T07:41:10.539Z,23.74
2023-04-23T07:42:10.542Z,23.75
2023-04-23T07:43:10.548Z,23.75
2023-04-23T07:44:10.558Z,23.75
2023-04-23T07:45:10.550Z,23.75
2023-04-23T07:46:10.601Z,23.76
2023-04-23T07:47:10.540Z,23.76
2023-04-23T07:48:10.572Z,23.77
2023-04-23T07:49:10.557Z,23.77
2023-04-23T07:50:10.568Z,23.78
2023-04-23T07:51:10.542Z,23.78
2023-04-23T07:52:10.588Z,23.78
2023-04-23T07:53:10.557Z,23.78
2023-04-23T07:54:10.592Z,23.78
2023-04-23T07:55:10.545Z,23.80
2023-04-23T07:56:10.562Z,23.80
2023-04-23T07:57:10.569Z,23.80
2023-04-23T07:58:10.577Z,23.80
2023-04-23T07:59:10.566Z,23.80
2023-04-23T08:00:10.577Z,23.81
2023-04-23T08:01:10.576Z,23.81
2023-04-23T08:02:10.721Z,23.82
2023-04-23T08:03:10.639Z,23.82
2023-04-23T08:04:10.874Z,23.83
2023-04-23T08:05:10.820Z,23.84
2023-04-23T08:06:10.561Z,23.85
2023-04-23T08:07:10.583Z,23.85
2023-04-23T08:08:10.582Z,23.84
2023-04-23T08:09:10.566Z,23.85
2023-04-23T08:10:10.557Z,23.85
2023-04-23T08:11:10.571Z,23.85
2023-04-23T08:12:10.553Z,23.86
2023-04-23T08:13:10.575Z,23.88
2023-04-23T08:14:10.561Z,23.88
2023-04-23T08:15:10.568Z,23.88
2023-04-23T08:16:10.647Z,23.89
2023-04-23T08:17:10.557Z,23.90
2023-04-23T08:18:10.552Z,23.91
2023-04-23T08:19:10.571Z,23.91
2023-04-23T08:20:10.613Z,23.92
2023-04-23T08:21:10.549Z,23.91
2023-04-23T08:22:10.529Z,23.92
2023-04-23T08:23:10.538Z,23.91
2023-04-23T08:24:10.552Z,23.92
2023-04-23T08:25:10.552Z,23.92
2023-04-23T08:26:10.509Z,23.92
2023-04-23T08:27:10.522Z,23.93
2023-04-23T08:28:10.531Z,23.93
2023-04-23T08:29:11.618Z,23.94
2023-04-23T08:30:10.504Z,23.94
2023-04-23T08:31:22.870Z,23.94
2023-04-23T08:32:11.538Z,23.94
2023-04-23T08:33:10.538Z,23.94
2023-04-23T08:34:10.471Z,23.96
2023-04-23T08:35:10.494Z,23.95
2023-04-23T08:36:10.592Z,23.96
2023-04-23T08:37:19.622Z,23.96
2023-04-23T08:38:11.460Z,23.95
2023-04-23T08:39:10.464Z,23.96
2023-04-23T08:40:10.448Z,23.96
2023-04-23T08:41:10.452Z,23.97
2023-04-23T08:42:10.430Z,23.97
2023-04-23T08:43:10.446Z,23.98
2023-04-23T08:44:10.441Z,23.98
2023-04-23T08:45:10.438Z,23.98
2023-04-23T08:46:10.433Z,23.99
2023-04-23T08:47:10.440Z,23.99
2023-04-23T08:48:10.453Z,23.99
2023-04-23T08:49:10.392Z,23.99
2023-04-23T08:50:10.384Z,23.99
2023-04-23T08:51:10.409Z,24.00
2023-04-23T08:52:10.394Z,24.00
2023-04-23T08:53:10.464Z,24.00
2023-04-23T08:54:10.477Z,24.00
2023-04-23T08:55:10.540Z,24.01
2023-04-23T08:56:10.564Z,24.01
2023-04-23T08:57:10.566Z,24.01
2023-04-23T08:58:10.578Z,24.01
2023-04-23T08:59:10.628Z,24.02
2023-04-23T09:00:10.667Z,24.02
2023-04-23T09:01:10.735Z,24.02
2023-04-23T09:02:10.986Z,24.02
2023-04-23T09:03:11.041Z,24.01
2023-04-23T09:04:10.821Z,24.00
2023-04-23T09:05:10.830Z,23.99
2023-04-23T09:06:10.883Z,24.00
2023-04-23T09:07:10.897Z,23.99
2023-04-23T09:08:10.939Z,23.99
2023-04-23T09:09:10.972Z,24.00
2023-04-23T09:10:11.005Z,24.01
2023-04-23T09:11:11.051Z,24.01
2023-04-23T09:12:11.107Z,24.01
2023-04-23T09:13:11.093Z,24.01
2023-04-23T09:14:11.153Z,24.00
2023-04-23T09:15:11.193Z,24.02
2023-04-23T09:16:11.267Z,24.02
2023-04-23T09:17:11.286Z,24.02
2023-04-23T09:18:11.367Z,24.03
2023-04-23T09:19:11.420Z,24.03
2023-04-23T09:20:11.557Z,24.03
2023-04-23T09:21:11.501Z,24.03
2023-04-23T09:22:11.569Z,24.03
2023-04-23T09:23:11.629Z,24.02
2023-04-23T09:24:11.699Z,24.02
2023-04-23T09:25:11.728Z,24.02
2023-04-23T09:26:11.789Z,24.02
2023-04-23T09:27:11.836Z,24.02
2023-04-23T09:28:11.997Z,24.03
2023-04-23T09:29:11.912Z,24.03
2023-04-23T09:30:11.962Z,24.03
2023-04-23T09:31:12.024Z,24.05
2023-04-23T09:32:12.093Z,24.04
2023-04-23T09:33:12.118Z,24.05
2023-04-23T09:34:12.268Z,24.06
2023-04-23T09:35:12.218Z,24.05
2023-04-23T09:36:12.274Z,24.06
2023-04-23T09:37:12.313Z,24.06
2023-04-23T09:38:12.367Z,24.06
2023-04-23T09:39:12.438Z,24.07
2023-04-23T09:40:12.503Z,24.07
2023-04-23T09:41:12.572Z,24.08
2023-04-23T09:42:12.642Z,24.08
2023-04-23T09:43:12.662Z,24.09
2023-04-23T09:44:12.730Z,24.09
2023-04-23T09:45:12.796Z,24.09
2023-04-23T09:46:12.940Z,24.10
2023-04-23T09:47:12.948Z,24.10
2023-04-23T09:48:12.982Z,24.10
2023-04-23T09:49:13.070Z,24.10
2023-04-23T09:50:13.128Z,24.10
2023-04-23T09:51:13.178Z,24.11
2023-04-23T09:52:13.228Z,24.11
2023-04-23T09:53:13.276Z,24.13
2023-04-23T09:54:13.357Z,24.13
2023-04-23T09:55:13.408Z,24.13
2023-04-23T09:56:13.459Z,24.14
2023-04-23T09:57:13.542Z,24.14
2023-04-23T09:58:13.611Z,24.15
2023-04-23T09:59:13.697Z,24.15
2023-04-23T10:00:15.034Z,24.15
2023-04-23T10:01:13.810Z,24.16
2023-04-23T10:02:14.128Z,24.16
2023-04-23T10:03:14.046Z,24.17
2023-04-23T10:04:14.228Z,24.17
2023-04-23T10:05:23.618Z,24.17
2023-04-23T10:06:25.939Z,24.17
2023-04-23T10:07:18.967Z,24.15
2023-04-23T10:08:14.225Z,24.15
2023-04-23T10:09:14.013Z,24.15
2023-04-23T10:10:14.009Z,24.15
2023-04-23T10:11:20.789Z,24.16
2023-04-23T10:13:13.964Z,24.15
2023-04-23T10:14:13.966Z,24.17
2023-04-23T10:15:13.965Z,24.17
2023-04-23T10:16:22.480Z,24.18
2023-04-23T10:17:14.953Z,24.17
2023-04-23T10:18:13.965Z,24.17
2023-04-23T10:19:13.923Z,24.18
2023-04-23T10:20:13.912Z,24.18
2023-04-23T10:21:13.910Z,24.19
2023-04-23T10:23:13.875Z,24.19
2023-04-23T10:24:13.904Z,24.19
2023-04-23T10:25:13.870Z,24.19
2023-04-23T10:26:13.874Z,24.20
2023-04-23T10:27:21.930Z,24.20
2023-04-23T10:28:14.855Z,24.20
2023-04-23T10:29:13.859Z,24.20
2023-04-23T10:30:13.847Z,24.20
2023-04-23T10:31:13.874Z,24.21
2023-04-23T10:32:13.810Z,24.21
2023-04-23T10:33:28.570Z,24.22
2023-04-23T10:34:14.824Z,24.22
2023-04-23T10:35:13.813Z,24.22
2023-04-23T10:36:13.844Z,24.22
2023-04-23T10:37:13.821Z,24.21
2023-04-23T10:38:13.834Z,24.21
2023-04-23T10:39:15.887Z,24.22
2023-04-23T10:40:15.029Z,24.21
2023-04-23T10:41:13.776Z,24.22
2023-04-23T10:42:13.770Z,24.21
2023-04-23T10:43:13.761Z,24.21
2023-04-23T10:44:15.761Z,24.22
2023-04-23T10:45:23.227Z,24.21
2023-04-23T10:46:14.787Z,24.21
2023-04-23T10:47:13.757Z,24.21
2023-04-23T10:48:13.739Z,24.21
2023-04-23T10:49:13.741Z,24.21
2023-04-23T10:50:13.737Z,24.22
2023-04-23T10:52:20.344Z,24.22
2023-04-23T10:53:14.705Z,24.21
2023-04-23T10:54:13.693Z,24.22
2023-04-23T10:55:13.707Z,24.22
2023-04-23T10:56:13.688Z,24.23
2023-04-23T10:57:13.676Z,24.22
2023-04-23T10:58:13.682Z,24.23
2023-04-23T10:59:13.701Z,24.22
2023-04-23T11:00:13.653Z,24.22
2023-04-23T11:01:13.660Z,24.22
2023-04-23T11:02:13.884Z,24.23
2023-04-23T11:03:13.714Z,24.23
2023-04-23T11:04:13.773Z,24.23
2023-04-23T11:05:13.606Z,24.24
2023-04-23T11:06:13.603Z,24.23
2023-04-23T11:07:13.585Z,24.23
2023-04-23T11:08:19.197Z,24.24
2023-04-23T11:09:14.598Z,24.24
2023-04-23T11:10:13.681Z,24.24
2023-04-23T11:11:13.599Z,24.25
2023-04-23T11:12:13.597Z,24.24
2023-04-23T11:13:13.549Z,24.25
2023-04-23T11:14:13.591Z,24.25
2023-04-23T11:15:13.562Z,24.24
2023-04-23T11:16:13.572Z,24.23
2023-04-23T11:17:13.559Z,24.23
2023-04-23T11:18:13.567Z,24.23
2023-04-23T11:19:13.630Z,24.22
2023-04-23T11:20:13.938Z,24.23
2023-04-23T11:21:13.740Z,24.22
2023-04-23T11:22:13.808Z,24.22
2023-04-23T11:23:13.836Z,24.22
2023-04-23T11:24:15.417Z,24.22
2023-04-23T11:25:13.977Z,24.24
2023-04-23T11:26:13.980Z,24.24
2023-04-23T11:27:14.048Z,24.25
2023-04-23T11:28:14.124Z,24.25
2023-04-23T11:29:14.142Z,24.26
2023-04-23T11:30:14.256Z,24.26
2023-04-23T11:31:14.227Z,24.26
2023-04-23T11:32:14.363Z,24.27
2023-04-23T11:33:14.394Z,24.27
2023-04-23T11:34:14.390Z,24.28
2023-04-23T11:35:14.418Z,24.28
2023-04-23T11:36:14.517Z,24.28
2023-04-23T11:37:14.541Z,24.29
2023-04-23T11:38:14.583Z,24.29
2023-04-23T11:39:14.642Z,24.30
2023-04-23T11:40:14.686Z,24.31
2023-04-23T11:41:14.762Z,24.31
2023-04-23T11:42:14.781Z,24.32
2023-04-23T11:43:14.832Z,24.32
2023-04-23T11:44:14.900Z,24.32
2023-04-23T11:45:14.932Z,24.33
2023-04-23T11:46:15.066Z,24.33
2023-04-23T11:47:15.049Z,24.33
2023-04-23T11:48:15.087Z,24.34
2023-04-23T11:49:15.155Z,24.34
2023-04-23T11:50:15.257Z,24.34
2023-04-23T11:51:15.239Z,24.35
2023-04-23T11:52:15.309Z,24.35
2023-04-23T11:53:15.342Z,24.37
2023-04-23T11:54:15.418Z,24.37
2023-04-23T11:55:15.414Z,24.37
2023-04-23T11:56:15.488Z,24.37
2023-04-23T11:57:15.524Z,24.38
2023-04-23T11:58:15.739Z,24.37
2023-04-23T11:59:15.639Z,24.37
2023-04-23T12:00:15.680Z,24.38
2023-04-23T12:01:15.709Z,24.38
2023-04-23T12:02:15.842Z,24.39
2023-04-23T12:03:15.885Z,24.41
2023-04-23T12:04:16.130Z,24.41
2023-04-23T12:05:15.953Z,24.41
2023-04-23T12:06:15.926Z,24.43
2023-04-23T12:07:25.968Z,24.42
2023-04-23T12:08:16.958Z,24.44
2023-04-23T12:09:15.958Z,24.44
2023-04-23T12:10:16.671Z,24.45
2023-04-23T12:11:15.936Z,24.47
2023-04-23T12:12:15.940Z,24.45
2023-04-23T12:13:15.930Z,24.44
2023-04-23T12:14:16.017Z,24.43
2023-04-23T12:15:15.930Z,24.43
2023-04-23T12:16:15.947Z,24.43
2023-04-23T12:17:15.902Z,24.43
2023-04-23T12:18:15.875Z,24.44
2023-04-23T12:19:15.897Z,24.44
2023-04-23T12:20:15.893Z,24.45
2023-04-23T12:21:15.949Z,24.47
2023-04-23T12:22:16.016Z,24.47
2023-04-23T12:23:16.035Z,24.48
2023-04-23T12:24:16.046Z,24.48
2023-04-23T12:25:16.152Z,24.50
2023-04-23T12:26:16.194Z,24.51
2023-04-23T12:27:16.209Z,24.54
2023-04-23T12:28:16.207Z,24.54
2023-04-23T12:29:16.246Z,24.53
2023-04-23T12:30:16.259Z,24.53
2023-04-23T12:31:16.307Z,24.54
2023-04-23T12:32:16.373Z,24.55
2023-04-23T12:33:16.398Z,24.56
2023-04-23T12:34:16.398Z,24.58
2023-04-23T12:35:16.461Z,24.60
2023-04-23T12:36:16.453Z,24.62
2023-04-23T12:37:16.476Z,24.63
2023-04-23T12:38:16.493Z,24.65
2023-04-23T12:39:16.567Z,24.66
2023-04-23T12:40:16.561Z,24.67
2023-04-23T12:41:16.577Z,24.69
2023-04-23T12:42:16.579Z,24.69
2023-04-23T12:43:16.634Z,24.69
2023-04-23T12:44:16.622Z,24.70
2023-04-23T12:45:16.651Z,24.68
2023-04-23T12:46:17.074Z,24.67
2023-04-23T12:47:16.679Z,24.65
2023-04-23T12:48:16.722Z,24.65
2023-04-23T12:49:16.748Z,24.64
2023-04-23T12:50:16.779Z,24.64
2023-04-23T12:51:17.448Z,24.64
2023-04-23T12:52:16.818Z,24.63
2023-04-23T12:53:16.846Z,24.63
2023-04-23T12:54:16.905Z,24.63
2023-04-23T12:55:16.903Z,24.62